Time;durP1;ratioP1;P1;durP2;ratioP2;P2;SDS_P1;SDS_P2;PMS_P1;PMS_P2;Temp;Humidity;BMP_temperature;BMP_pressure;BME280_temperature;BME280_humidity;BME280_pressure;Samples;Min_cycle;Max_cycle;Signal;HPM_P1;HPM_P2
2022/09/18 00:00:49;;;;;;;;;;;;;;;-144.99;94.51;52446.06;5072126;28;19925;-75
2022/09/18 00:03:16;;;;;;;;;;;;;;;-144.99;94.24;52415.47;5068528;28;19930;-75
2022/09/18 00:05:43;;;;;;;;;;;;;;;-144.99;93.44;52423.63;5073891;28;20011;-74
2022/09/18 00:08:10;;;;;;;;;;;;;;;-144.99;92.73;52466.44;5077921;28;20428;-74
2022/09/18 00:10:40;;;;;;;;;;;;;;;-144.99;92.44;52429.75;5065180;28;20000;-74
2022/09/18 00:13:06;;;;;;;;;;;;;;;-144.99;91.07;52423.63;5074056;28;20372;-75
2022/09/18 00:15:32;;;;;;;;;;;;;;;-144.99;90.46;52403.25;5068503;28;20029;-74
2022/09/18 00:18:00;;;;;;;;;;;;;;;-144.99;90.34;52431.78;5073753;28;20004;-75
2022/09/18 00:20:27;;;;;;;;;;;;;;;-144.99;90.11;52431.78;5073233;28;20034;-76
2022/09/18 00:22:53;;;;;;;;;;;;;;;-144.99;89.79;52415.47;5072860;28;19970;-75
2022/09/18 00:25:20;;;;;;;;;;;;;;;-144.99;89.68;52427.72;5075454;28;20653;-75
2022/09/18 00:27:46;;;;;;;;;;;;;;;-144.99;89.45;52431.78;5074309;28;19964;-74
2022/09/18 00:30:13;;;;;;;;;;;;;;;-144.99;89.00;52444.03;5067687;28;19933;-74
2022/09/18 00:32:39;;;;;;;;;;;;;;;-144.99;88.71;52423.63;5053629;28;20086;-74
2022/09/18 00:35:08;;;;;;;;;;;;;;;-144.99;88.52;52425.66;5068351;28;19991;-75
2022/09/18 00:37:34;;;;;;;;;;;;;;;-144.99;88.41;52419.56;5074326;28;19960;-74
2022/09/18 00:40:01;;;;;;;;;;;;;;;-144.99;88.49;52423.63;5063318;28;19928;-74
2022/09/18 00:42:28;;;;;;;;;;;;;;;-144.99;88.10;52421.59;5072320;28;20459;-72
2022/09/18 00:44:54;;;;;;;;;;;;;;;-144.99;88.28;52419.56;5066398;28;19932;-73
2022/09/18 00:47:24;;;;;;;;;;;;;;;-144.99;87.71;52435.88;5070826;28;20014;-73
2022/09/18 00:49:52;;;;;;;;;;;;;;;-144.99;87.75;52468.47;5072902;28;20048;-73
2022/09/18 00:52:21;;;;;;;;;;;;;;;-144.99;88.58;52401.22;5061805;28;19924;-74
2022/09/18 00:54:49;;;;;;;;;;;;;;;-144.99;88.23;52380.84;5074534;28;19939;-74
2022/09/18 00:57:17;;;;;;;;;;;;;;;-144.99;88.64;52429.75;5074393;28;19924;-73
2022/09/18 00:59:45;;;;;;;;;;;;;;;-144.99;88.66;52441.97;5066984;28;19987;-76
2022/09/18 01:02:12;;;;;;;;;;;;;;;-144.99;88.48;52407.31;5063520;28;20315;-74
2022/09/18 01:04:38;;;;;;;;;;;;;;;-144.99;88.09;52431.78;5074690;28;19978;-74
2022/09/18 01:07:09;;;;;;;;;;;;;;;-144.99;88.05;52378.78;5066538;28;19936;-75
2022/09/18 01:09:41;;;;;;;;;;;;;;;-144.99;87.58;52413.44;5072111;28;20023;-75
2022/09/18 01:12:10;;;;;;;;;;;;;;;-144.99;87.65;52427.72;5065789;28;19967;-77
2022/09/18 01:14:41;;;;;;;;;;;;;;;-144.99;87.82;52403.25;5069536;28;20014;-74
2022/09/18 01:17:11;;;;;;;;;;;;;;;-144.99;87.73;52401.22;5069838;28;20447;-75
2022/09/18 01:19:52;;;;;;;;;;;;;;;-144.99;87.95;52452.16;5080618;28;19924;-74
2022/09/18 01:22:25;;;;;;;;;;;;;;;-144.99;88.37;52423.63;5067679;28;19924;-75
2022/09/18 01:25:08;;;;;;;;;;;;;;;-144.99;88.68;52444.03;5060540;28;19981;-72
2022/09/18 01:27:39;;;;;;;;;;;;;;;-144.99;88.95;52464.41;5074459;28;19924;-71
2022/09/18 01:30:08;;;;;;;;;;;;;;;-144.99;88.98;52433.81;5073213;28;21265;-71
2022/09/18 01:32:39;;;;;;;;;;;;;;;-144.99;89.51;52439.94;5060108;28;19924;-72
2022/09/18 01:35:07;;;;;;;;;;;;;;;-144.99;90.33;52429.75;5069799;28;20340;-74
2022/09/18 01:37:36;;;;;;;;;;;;;;;-144.99;89.84;52407.31;5080136;28;20010;-73
2022/09/18 01:40:06;;;;;;;;;;;;;;;-144.99;90.66;52419.56;5076514;28;19932;-75
2022/09/18 01:42:34;;;;;;;;;;;;;;;-144.99;91.64;52403.25;5076795;28;19928;-74
2022/09/18 01:45:04;;;;;;;;;;;;;;;-144.99;92.54;52458.28;5072503;28;20071;-74
2022/09/18 01:47:35;;;;;;;;;;;;;;;-144.99;92.78;52433.81;5075229;28;19928;-75
2022/09/18 01:50:02;;;;;;;;;;;;;;;-144.99;94.18;52468.47;5075989;28;19967;-72
2022/09/18 01:52:31;;;;;;;;;;;;;;;-144.99;95.76;52468.47;5070588;28;20529;-72
2022/09/18 01:54:58;;;;;;;;;;;;;;;-144.99;95.41;52437.91;5075220;28;20032;-72
2022/09/18 01:57:27;;;;;;;;;;;;;;;-144.99;96.10;52468.47;5076792;28;19990;-73
2022/09/18 01:59:57;;;;;;;;;;;;;;;-144.99;96.18;52448.09;5078372;28;19928;-73
2022/09/18 02:02:26;;;;;;;;;;;;;;;-144.99;96.63;52411.41;5071120;28;19930;-74
2022/09/18 02:04:58;;;;;;;;;;;;;;;-144.99;96.12;52415.47;5079375;28;20005;-73
2022/09/18 02:07:28;;;;;;;;;;;;;;;-144.99;96.17;52439.94;5072204;28;19985;-72
2022/09/18 02:09:55;;;;;;;;;;;;;;;-144.99;96.38;52444.03;5071297;28;20056;-72
2022/09/18 02:12:23;;;;;;;;;;;;;;;-144.99;96.33;52429.75;5070582;28;20388;-72
2022/09/18 02:14:51;;;;;;;;;;;;;;;-144.99;96.91;52448.09;5075522;28;20469;-72
2022/09/18 02:17:20;;;;;;;;;;;;;;;-144.99;96.23;52423.63;5073125;28;20368;-73
2022/09/18 02:19:50;;;;;;;;;;;;;;;-144.99;96.15;52474.59;5076163;28;20421;-71
2022/09/18 02:22:20;;;;;;;;;;;;;;;-144.99;96.02;52427.72;5070105;28;19964;-73
2022/09/18 02:24:49;;;;;;;;;;;;;;;-144.99;96.23;52439.94;5075143;28;20290;-73
2022/09/18 02:27:16;;;;;;;;;;;;;;;-144.99;96.35;52452.16;5070013;28;20016;-72
2022/09/18 02:29:44;;;;;;;;;;;;;;;-144.99;95.42;52407.31;5069320;28;19958;-71
2022/09/18 02:32:11;;;;;;;;;;;;;;;-144.99;95.83;52452.16;5064353;28;19982;-71
2022/09/18 02:34:37;;;;;;;;;;;;;;;-144.99;96.19;52456.25;5066137;28;19924;-71
2022/09/18 02:37:21;;;;;;;;;;;;;;;-144.99;96.25;52423.63;5075137;28;19954;-71
2022/09/18 02:39:55;;;;;;;;;;;;;;;-144.99;96.72;52450.13;5068006;28;20303;-72
2022/09/18 02:42:34;;;;;;;;;;;;;;;-144.99;96.80;52431.78;5075641;28;20414;-72
2022/09/18 02:45:04;;;;;;;;;;;;;;;-144.99;96.27;52435.88;5073935;28;19930;-73
2022/09/18 02:47:35;;;;;;;;;;;;;;;-144.99;95.25;52435.88;5066875;28;20275;-73
2022/09/18 02:50:11;;;;;;;;;;;;;;;-144.99;93.89;52460.31;5072589;28;20421;-74
2022/09/18 02:52:41;;;;;;;;;;;;;;;-144.99;93.06;52435.88;5066186;28;20377;-73
2022/09/18 02:55:11;;;;;;;;;;;;;;;-144.99;93.07;52415.47;5076350;28;20411;-74
2022/09/18 02:57:41;;;;;;;;;;;;;;;-144.99;95.49;52484.78;5070151;28;20013;-75
2022/09/18 03:00:11;;;;;;;;;;;;;;;-144.99;95.68;52450.13;5073864;28;19924;-74
2022/09/18 03:02:38;;;;;;;;;;;;;;;-144.99;94.77;52452.16;5069163;28;20432;-73
2022/09/18 03:05:04;;;;;;;;;;;;;;;-144.99;95.00;52435.88;5063148;28;19930;-74
2022/09/18 03:07:31;;;;;;;;;;;;;;;-144.99;95.73;52435.88;5076345;28;20035;-74
2022/09/18 03:09:57;;;;;;;;;;;;;;;-144.99;96.17;52464.41;5075223;28;19955;-74
2022/09/18 03:12:25;;;;;;;;;;;;;;;-144.99;96.47;52452.16;5069030;28;19933;-72
2022/09/18 03:14:52;;;;;;;;;;;;;;;-144.99;97.33;52444.03;5071052;28;20026;-73
2022/09/18 03:17:18;;;;;;;;;;;;;;;-144.99;98.48;52431.78;5070208;28;19935;-74
2022/09/18 03:19:44;;;;;;;;;;;;;;;-144.99;99.57;52486.81;5074391;28;20378;-74
2022/09/18 03:22:11;;;;;;;;;;;;;;;-144.99;99.92;52497.00;5074203;28;20327;-74
2022/09/18 03:24:37;;;;;;;;;;;;;;;-144.99;100.00;52423.63;5073941;28;19928;-74
2022/09/18 03:27:05;;;;;;;;;;;;;;;-144.99;100.00;52431.78;5071602;28;19977;-75
2022/09/18 03:29:33;;;;;;;;;;;;;;;-144.99;100.00;52431.78;5073884;28;20445;-75
2022/09/18 03:32:00;;;;;;;;;;;;;;;-144.99;100.00;52492.94;5055097;28;19959;-75
2022/09/18 03:34:26;;;;;;;;;;;;;;;-144.99;100.00;52403.25;5062312;28;19939;-74
2022/09/18 03:36:53;;;;;;;;;;;;;;;-144.99;100.00;52476.63;5064171;28;20081;-75
2022/09/18 03:39:19;;;;;;;;;;;;;;;-144.99;100.00;52415.47;5062302;28;19928;-75
2022/09/18 03:41:45;;;;;;;;;;;;;;;-144.99;100.00;52503.13;5057254;28;19931;-74
2022/09/18 03:44:12;;;;;;;;;;;;;;;-144.99;100.00;52409.38;5063860;28;20041;-74
2022/09/18 03:46:40;;;;;;;;;;;;;;;-144.99;100.00;52439.94;5060905;28;20007;-74
2022/09/18 03:49:07;;;;;;;;;;;;;;;-144.99;100.00;52417.53;5061462;28;19928;-72
2022/09/18 03:51:34;;;;;;;;;;;;;;;-144.99;100.00;52488.84;5060882;28;20403;-74
2022/09/18 03:54:00;;;;;;;;;;;;;;;-144.99;100.00;52448.09;5060758;28;19970;-75
2022/09/18 03:56:27;;;;;;;;;;;;;;;-144.99;100.00;52423.63;5061655;28;19972;-76
2022/09/18 03:58:53;;;;;;;;;;;;;;;-144.99;100.00;52448.09;5059342;28;19999;-75
2022/09/18 04:01:20;;;;;;;;;;;;;;;-144.99;100.00;52480.72;5059966;28;20265;-73
2022/09/18 04:03:48;;;;;;;;;;;;;;;-144.99;100.00;52435.88;5062217;28;20411;-75
2022/09/18 04:06:15;;;;;;;;;;;;;;;-144.99;99.87;52407.31;5064103;28;20094;-74
2022/09/18 04:08:41;;;;;;;;;;;;;;;-144.99;99.85;52439.94;5061910;28;20028;-76
2022/09/18 04:11:08;;;;;;;;;;;;;;;-144.99;100.00;52452.16;5060034;28;20013;-76
2022/09/18 04:13:34;;;;;;;;;;;;;;;-144.99;100.00;52478.66;5058308;28;20391;-74
2022/09/18 04:16:01;;;;;;;;;;;;;;;-144.99;100.00;52435.88;5061669;28;19983;-75
2022/09/18 04:18:27;;;;;;;;;;;;;;;-144.99;100.00;52446.06;5055625;28;20009;-74
2022/09/18 04:20:55;;;;;;;;;;;;;;;-144.99;100.00;52435.88;5065287;28;19945;-76
2022/09/18 04:23:21;;;;;;;;;;;;;;;-144.99;100.00;52448.09;5062931;28;20028;-76
2022/09/18 04:25:48;;;;;;;;;;;;;;;-144.99;100.00;52452.16;5060867;28;19986;-74
2022/09/18 04:28:14;;;;;;;;;;;;;;;-144.99;100.00;52439.94;5059723;28;19951;-76
2022/09/18 04:30:41;;;;;;;;;;;;;;;-144.99;100.00;52407.31;5058382;28;19975;-76
2022/09/18 04:33:07;;;;;;;;;;;;;;;-144.99;100.00;52407.31;5057119;28;19925;-76
2022/09/18 04:35:34;;;;;;;;;;;;;;;-144.99;100.00;52448.09;5059093;28;20428;-74
2022/09/18 04:38:02;;;;;;;;;;;;;;;-144.99;100.00;52429.75;5058311;28;20006;-76
2022/09/18 04:40:28;;;;;;;;;;;;;;;-144.99;100.00;52460.31;5061034;28;19928;-76
2022/09/18 04:42:54;;;;;;;;;;;;;;;-144.99;100.00;52415.47;5056897;28;19928;-75
2022/09/18 04:45:21;;;;;;;;;;;;;;;-144.99;100.00;52439.94;5059496;28;19972;-75
2022/09/18 04:47:48;;;;;;;;;;;;;;;-144.99;100.00;52435.88;5057980;28;19928;-76
2022/09/18 04:50:15;;;;;;;;;;;;;;;-144.99;100.00;52470.50;5064059;28;19960;-76
2022/09/18 04:52:41;;;;;;;;;;;;;;;-144.99;100.00;52460.31;5058528;28;19928;-75
2022/09/18 04:55:10;;;;;;;;;;;;;;;-144.99;100.00;52444.03;5061366;28;19931;-75
2022/09/18 04:57:36;;;;;;;;;;;;;;;-144.99;100.00;52480.72;5059270;28;20030;-75
2022/09/18 05:00:03;;;;;;;;;;;;;;;-144.99;100.00;52437.91;5060897;28;20437;-74
2022/09/18 05:02:30;;;;;;;;;;;;;;;-144.99;100.00;52419.56;5060047;28;19925;-74
2022/09/18 05:04:57;;;;;;;;;;;;;;;-144.99;100.00;52419.56;5064200;28;19935;-72
2022/09/18 05:07:23;;;;;;;;;;;;;;;-144.99;100.00;52468.47;5063534;28;19924;-76
2022/09/18 05:09:50;;;;;;;;;;;;;;;-144.99;100.00;52468.47;5064913;28;20023;-73
2022/09/18 05:12:18;;;;;;;;;;;;;;;-144.99;100.00;52421.59;5060715;28;19944;-73
2022/09/18 05:14:44;;;;;;;;;;;;;;;-144.99;100.00;52419.56;5065357;28;20356;-73
2022/09/18 05:17:11;;;;;;;;;;;;;;;-144.99;100.00;52423.63;5060351;28;20336;-73
2022/09/18 05:19:37;;;;;;;;;;;;;;;-144.99;100.00;52427.72;5066900;28;19932;-74
2022/09/18 05:22:04;;;;;;;;;;;;;;;-144.99;100.00;52480.72;5065322;28;20364;-72
2022/09/18 05:24:30;;;;;;;;;;;;;;;-144.99;100.00;52460.31;5059842;28;19933;-73
2022/09/18 05:26:57;;;;;;;;;;;;;;;-144.99;100.00;52427.72;5060880;28;20027;-74
2022/09/18 05:29:24;;;;;;;;;;;;;;;-144.99;100.00;52435.88;5065355;28;20016;-71
2022/09/18 05:31:51;;;;;;;;;;;;;;;-144.99;100.00;52452.16;5056487;28;20051;-73
2022/09/18 05:34:17;;;;;;;;;;;;;;;-144.99;99.95;52448.09;5064449;28;19932;-73
2022/09/18 05:36:45;;;;;;;;;;;;;;;-144.99;99.21;52444.03;5064522;28;19936;-73
2022/09/18 05:39:11;;;;;;;;;;;;;;;-144.99;98.69;52427.72;5063079;28;19959;-74
2022/09/18 05:41:38;;;;;;;;;;;;;;;-144.99;97.95;52415.47;5064507;28;19971;-71
2022/09/18 05:44:04;;;;;;;;;;;;;;;-144.99;98.40;52458.28;5065739;28;20023;-73
2022/09/18 05:46:32;;;;;;;;;;;;;;;-144.99;99.29;52448.09;5059665;28;20469;-73
2022/09/18 05:48:59;;;;;;;;;;;;;;;-144.99;99.89;52456.25;5064387;28;19966;-71
2022/09/18 05:51:26;;;;;;;;;;;;;;;-144.99;100.00;52472.56;5062810;28;19928;-72
2022/09/18 05:53:52;;;;;;;;;;;;;;;-144.99;98.86;52437.91;5065075;28;19967;-73
2022/09/18 05:56:19;;;;;;;;;;;;;;;-144.99;99.22;52419.56;5063271;28;19932;-72
2022/09/18 05:58:45;;;;;;;;;;;;;;;-144.99;99.49;52460.31;5066319;28;20012;-76
2022/09/18 06:01:13;;;;;;;;;;;;;;;-144.99;99.16;52456.25;5063169;28;20459;-74
2022/09/18 06:03:41;;;;;;;;;;;;;;;-144.99;98.65;52474.59;5062546;28;19963;-74
2022/09/18 06:06:07;;;;;;;;;;;;;;;-144.99;98.38;52444.03;5064082;28;20299;-73
2022/09/18 06:08:35;;;;;;;;;;;;;;;-144.99;97.93;52452.16;5066325;28;19952;-74
2022/09/18 06:11:01;;;;;;;;;;;;;;;-144.99;97.61;52460.31;5063454;28;19928;-74
2022/09/18 06:13:28;;;;;;;;;;;;;;;-144.99;97.43;52427.72;5062398;28;19932;-75
2022/09/18 06:15:56;;;;;;;;;;;;;;;-144.99;97.89;52458.28;5065769;28;19935;-74
2022/09/18 06:18:22;;;;;;;;;;;;;;;-144.99;97.58;52456.25;5066588;28;19979;-74
2022/09/18 06:20:53;;;;;;;;;;;;;;;-144.99;98.30;52435.88;5068225;28;19932;-76
2022/09/18 06:23:20;;;;;;;;;;;;;;;-144.99;98.09;52456.25;5063786;28;19925;-74
2022/09/18 06:25:46;;;;;;;;;;;;;;;-144.99;98.60;52448.09;5064083;28;20455;-73
2022/09/18 06:28:13;;;;;;;;;;;;;;;-144.99;98.64;52476.63;5065045;28;20460;-72
2022/09/18 06:30:39;;;;;;;;;;;;;;;-144.99;99.97;52452.16;5064779;28;20019;-74
2022/09/18 06:33:06;;;;;;;;;;;;;;;-144.99;100.00;52466.44;5057452;28;20014;-73
2022/09/18 06:35:34;;;;;;;;;;;;;;;-144.99;100.00;52427.72;5075345;28;19928;-73
2022/09/18 06:38:02;;;;;;;;;;;;;;;-144.99;100.00;52429.75;5062831;28;19931;-73
2022/09/18 06:40:29;;;;;;;;;;;;;;;-144.99;100.00;52382.88;5063859;28;19931;-74
2022/09/18 06:42:56;;;;;;;;;;;;;;;-144.99;100.00;52431.78;5060787;28;20015;-74
2022/09/18 06:45:22;;;;;;;;;;;;;;;-144.99;100.00;52427.72;5062056;28;20298;-73
2022/09/18 06:47:52;;;;;;;;;;;;;;;-144.99;100.00;52423.63;5060570;28;20095;-73
2022/09/18 06:50:19;;;;;;;;;;;;;;;-144.99;100.00;52370.63;5062383;28;19928;-74
2022/09/18 06:52:45;;;;;;;;;;;;;;;-144.99;100.00;52444.03;5058273;28;20314;-73
2022/09/18 06:55:13;;;;;;;;;;;;;;;-144.99;100.00;52427.72;5063875;28;19942;-74
2022/09/18 06:57:40;;;;;;;;;;;;;;;-144.99;100.00;52401.22;5061887;28;20295;-75
2022/09/18 07:00:08;;;;;;;;;;;;;;;-144.99;99.97;52423.63;5062185;28;19967;-74
2022/09/18 07:02:34;;;;;;;;;;;;;;;-144.99;99.86;52399.19;5063215;28;19924;-75
2022/09/18 07:05:01;;;;;;;;;;;;;;;-144.99;100.00;52399.19;5060168;28;20007;-74
2022/09/18 07:07:27;;;;;;;;;;;;;;;-144.99;99.96;52382.88;5062305;28;20295;-75
2022/09/18 07:09:54;;;;;;;;;;;;;;;-144.99;94.41;52366.56;5062997;28;20278;-75
2022/09/18 07:12:21;;;;;;;;;;;;;;;-144.99;92.71;52419.56;5058589;28;19982;-73
2022/09/18 07:14:48;;;;;;;;;;;;;;;-144.99;92.36;52384.91;5060635;28;19932;-72
2022/09/18 07:17:14;;;;;;;;;;;;;;;-144.99;92.63;52399.19;5058789;28;19932;-72
2022/09/18 07:19:41;;;;;;;;;;;;;;;-144.99;94.10;52415.47;5064770;28;19966;-73
2022/09/18 07:22:07;;;;;;;;;;;;;;;-144.99;94.41;52372.69;5063266;28;19928;-74
2022/09/18 07:24:35;;;;;;;;;;;;;;;-144.99;94.01;52427.72;5060245;28;19925;-75
2022/09/18 07:27:01;;;;;;;;;;;;;;;-144.99;94.01;52388.97;5057900;28;20013;-74
2022/09/18 07:29:29;;;;;;;;;;;;;;;-144.99;90.93;52350.25;5060415;28;19967;-73
2022/09/18 07:31:56;;;;;;;;;;;;;;;-144.99;90.43;52374.72;5056084;28;19924;-74
2022/09/18 07:34:23;;;;;;;;;;;;;;;-144.99;84.80;52388.97;5063671;28;19986;-74
2022/09/18 07:36:50;;;;;;;;;;;;;;;-144.99;84.82;52395.09;5060623;28;19925;-74
2022/09/18 07:39:16;;;;;;;;;;;;;;;-144.99;85.73;52386.94;5071368;28;19924;-74
2022/09/18 07:41:43;;;;;;;;;;;;;;;-144.99;86.41;52370.63;5068884;28;19928;-74
2022/09/18 07:44:10;;;;;;;;;;;;;;;-144.99;86.51;52364.53;5070760;28;20007;-75
2022/09/18 07:46:38;;;;;;;;;;;;;;;-144.99;85.29;52386.94;5069372;28;19967;-75
2022/09/18 07:49:04;;;;;;;;;;;;;;;-144.99;82.63;52356.38;5069946;28;20017;-74
2022/09/18 07:51:31;;;;;;;;;;;;;;;-144.99;81.92;52391.03;5065342;28;20442;-74
2022/09/18 07:53:57;;;;;;;;;;;;;;;-144.99;82.99;52395.09;5063032;28;19924;-73
2022/09/18 07:56:24;;;;;;;;;;;;;;;-144.99;80.80;52344.16;5067538;28;19963;-75
2022/09/18 07:58:50;;;;;;;;;;;;;;;-144.99;79.95;52399.19;5066392;28;19986;-76
2022/09/18 08:01:17;;;;;;;;;;;;;;;-144.99;78.54;52378.78;5065399;28;19989;-76
2022/09/18 08:03:44;;;;;;;;;;;;;;;-144.99;78.46;52354.34;5066896;28;20003;-77
2022/09/18 08:06:11;;;;;;;;;;;;;;;-144.99;76.99;52380.84;5064413;28;20206;-77
2022/09/18 08:08:38;;;;;;;;;;;;;;;-144.99;76.27;52342.09;5069674;28;19970;-76
2022/09/18 08:11:04;;;;;;;;;;;;;;;-144.99;73.16;52388.97;5067365;28;19931;-75
2022/09/18 08:13:32;;;;;;;;;;;;;;;-144.99;78.04;52329.88;5066402;28;19963;-78
2022/09/18 08:15:58;;;;;;;;;;;;;;;-144.99;79.48;52401.22;5062433;28;19935;-77
2022/09/18 08:18:25;;;;;;;;;;;;;;;-144.99;79.68;52407.31;5065674;28;19993;-74
2022/09/18 08:20:54;;;;;;;;;;;;;;;-144.99;80.51;52378.78;5069314;28;19984;-75
2022/09/18 08:23:21;;;;;;;;;;;;;;;-144.99;80.84;52370.63;5066909;28;19932;-77
2022/09/18 08:25:47;;;;;;;;;;;;;;;-144.99;81.28;52370.63;5069797;28;19948;-79
2022/09/18 08:28:14;;;;;;;;;;;;;;;-144.99;82.28;52366.56;5071912;28;19925;-78
2022/09/18 08:30:40;;;;;;;;;;;;;;;-144.99;78.94;52364.53;5079882;28;19929;-76
2022/09/18 08:33:08;;;;;;;;;;;;;;;-144.99;71.25;52366.56;5076637;28;19932;-79
2022/09/18 08:35:35;;;;;;;;;;;;;;;-144.99;70.86;52358.41;5084002;28;19925;-78
2022/09/18 08:38:03;;;;;;;;;;;;;;;-144.99;67.52;52374.72;5083129;28;19932;-79
2022/09/18 08:40:42;;;;;;;;;;;;;;;-144.99;64.47;52340.06;5086200;28;20012;-77
2022/09/18 08:43:16;;;;;;;;;;;;;;;-144.99;62.51;52346.19;5083003;28;19959;-78
2022/09/18 08:45:48;;;;;;;;;;;;;;;-144.99;64.60;52370.63;5083842;28;19962;-77
2022/09/18 08:48:17;;;;;;;;;;;;;;;-144.99;63.22;52370.63;5089098;28;20294;-80
2022/09/18 08:50:47;;;;;;;;;;;;;;;-144.99;64.59;52391.03;5091935;28;20001;-81
2022/09/18 08:53:18;;;;;;;;;;;;;;;-144.99;66.80;52423.63;5090338;28;19913;-80
2022/09/18 08:55:48;;;;;;;;;;;;;;;-144.99;68.27;52425.66;5093359;28;20015;-80
2022/09/18 08:58:17;;;;;;;;;;;;;;;-144.99;70.99;52407.31;5094332;28;19936;-80
2022/09/18 09:00:46;;;;;;;;;;;;;;;-144.99;71.98;52382.88;5093192;28;19932;-78
2022/09/18 09:03:19;;;;;;;;;;;;;;;-144.99;72.63;52403.25;5091456;28;19912;-78
2022/09/18 09:05:48;;;;;;;;;;;;;;;-144.99;70.96;52407.31;5093131;28;19924;-79
2022/09/18 09:08:25;;;;;;;;;;;;;;;-144.99;69.16;52378.78;5087636;28;20300;-77
2022/09/18 09:10:55;;;;;;;;;;;;;;;-144.99;69.28;52388.97;5087769;28;20143;-78
2022/09/18 09:13:41;;;;;;;;;;;;;;;-144.99;71.39;52358.41;5084225;28;19988;-79
2022/09/18 09:16:13;;;;;;;;;;;;;;;-144.99;71.92;52364.53;5083312;28;19928;-78
2022/09/18 09:18:46;;;;;;;;;;;;;;;-144.99;73.28;52378.78;5079008;28;19936;-77
2022/09/18 09:21:17;;;;;;;;;;;;;;;-144.99;73.44;52386.94;5073105;28;19935;-78
2022/09/18 09:23:54;;;;;;;;;;;;;;;-144.99;73.12;52378.78;5073095;28;20430;-78
2022/09/18 09:26:22;;;;;;;;;;;;;;;-144.99;73.49;52354.34;5055944;28;19933;-77
2022/09/18 09:28:52;;;;;;;;;;;;;;;-144.99;71.37;52333.94;5066651;28;20042;-78
2022/09/18 09:31:20;;;;;;;;;;;;;;;-144.99;68.02;52333.94;5062424;28;19928;-76
2022/09/18 09:33:52;;;;;;;;;;;;;;;-144.99;65.82;52372.69;5075485;28;19946;-76
2022/09/18 09:36:21;;;;;;;;;;;;;;;-144.99;66.41;52354.34;5089226;22;20008;-70
2022/09/18 09:38:52;;;;;;;;;;;;;;;-144.99;66.05;52370.63;5062807;28;20020;-71
2022/09/18 09:41:22;;;;;;;;;;;;;;;-144.99;66.19;52352.28;5069363;28;19936;-71
2022/09/18 09:43:56;;;;;;;;;;;;;;;-144.99;66.06;52317.66;5069490;28;19928;-71
2022/09/18 09:46:30;;;;;;;;;;;;;;;-144.99;61.45;52313.56;5068329;28;19970;-73
2022/09/18 09:49:01;;;;;;;;;;;;;;;-144.99;58.01;52256.50;5068782;28;19925;-71
2022/09/18 09:51:31;;;;;;;;;;;;;;;-144.99;52.54;52276.88;5061101;28;19924;-71
2022/09/18 09:54:01;;;;;;;;;;;;;;;-144.99;51.16;52240.19;5069760;28;19924;-71
2022/09/18 09:56:32;;;;;;;;;;;;;;;-144.99;49.98;52232.03;5061991;28;20311;-72
2022/09/18 09:59:02;;;;;;;;;;;;;;;-144.99;48.22;52191.28;5084575;28;19939;-72
2022/09/18 10:01:31;;;;;;;;;;;;;;;-144.99;45.83;52179.06;5079349;28;19925;-71
2022/09/18 10:04:04;;;;;;;;;;;;;;;-144.99;45.17;52201.47;5078344;28;19929;-72
2022/09/18 10:06:41;;;;;;;;;;;;;;;-144.99;42.85;52146.44;5068505;28;19924;-71
2022/09/18 10:09:14;;;;;;;;;;;;;;;-144.99;40.43;52158.66;5068624;28;19924;-72
2022/09/18 10:11:41;;;;;;;;;;;;;;;-144.99;40.45;52211.66;5067637;28;19924;-72
2022/09/18 10:14:11;;;;;;;;;;;;;;;-144.99;41.72;52256.50;5068338;28;19928;-71
2022/09/18 10:16:40;;;;;;;;;;;;;;;-144.99;42.13;52268.72;5066463;28;20031;-72
2022/09/18 10:19:09;;;;;;;;;;;;;;;-144.99;43.13;52276.88;5065991;28;19938;-71
2022/09/18 10:21:37;;;;;;;;;;;;;;;-144.99;44.79;52362.50;5058552;28;19925;-72
2022/09/18 10:24:09;;;;;;;;;;;;;;;-144.99;47.96;52321.72;5066791;28;19928;-73
2022/09/18 10:26:39;;;;;;;;;;;;;;;-144.99;51.99;52395.09;5068979;28;20460;-72
2022/09/18 10:29:06;;;;;;;;;;;;;;;-144.99;55.41;52403.25;5068562;28;19931;-72
2022/09/18 10:31:46;;;;;;;;;;;;;;;-144.99;55.31;52433.81;5057676;28;20195;-70
2022/09/18 10:34:30;;;;;;;;;;;;;;;-144.99;58.49;52448.09;5075324;28;19930;-72
2022/09/18 10:36:57;;;;;;;;;;;;;;;-144.99;63.02;52391.03;5071218;28;19924;-71
2022/09/18 10:39:28;;;;;;;;;;;;;;;-144.99;65.66;52386.94;5072059;28;19925;-74
2022/09/18 10:41:58;;;;;;;;;;;;;;;-144.99;66.71;52346.19;5067350;28;20421;-74
2022/09/18 10:44:26;;;;;;;;;;;;;;;-144.99;66.07;52360.44;5064527;28;19931;-73
2022/09/18 10:46:59;;;;;;;;;;;;;;;-144.99;64.09;52232.03;5060259;28;19924;-73
2022/09/18 10:49:28;;;;;;;;;;;;;;;-144.99;56.70;52203.50;5061021;28;19925;-73
2022/09/18 10:52:15;;;;;;;;;;;;;;;-144.99;53.42;52203.50;5062567;28;19954;-71
2022/09/18 10:54:56;;;;;;;;;;;;;;;-144.99;49.48;52287.06;5051128;28;20307;-73
2022/09/18 10:57:26;;;;;;;;;;;;;;;-144.99;49.60;52313.56;5066495;28;19924;-73
2022/09/18 10:59:52;;;;;;;;;;;;;;;-144.99;50.66;52232.03;5053456;28;19998;-72
2022/09/18 11:02:21;;;;;;;;;;;;;;;-144.99;50.86;52240.19;5050234;28;19935;-75
2022/09/18 11:04:48;;;;;;;;;;;;;;;-144.99;50.62;52203.50;5070237;28;20409;-74
2022/09/18 11:07:14;;;;;;;;;;;;;;;-144.99;47.53;52199.44;5062042;28;19978;-73
2022/09/18 11:09:41;;;;;;;;;;;;;;;-144.99;45.57;52160.72;5067197;28;19978;-73
2022/09/18 11:12:15;;;;;;;;;;;;;;;-144.99;45.37;52162.75;5060773;28;19924;-72
2022/09/18 11:14:45;;;;;;;;;;;;;;;-144.99;44.39;52126.06;5070306;28;19932;-73
2022/09/18 11:17:20;;;;;;;;;;;;;;;-144.99;42.52;52174.97;5065275;28;19932;-73
2022/09/18 11:19:49;;;;;;;;;;;;;;;-144.99;41.21;52109.75;5061922;28;20046;-70
2022/09/18 11:22:31;;;;;;;;;;;;;;;-144.99;41.07;52138.28;5059321;28;20407;-72
2022/09/18 11:25:06;;;;;;;;;;;;;;;-144.99;41.31;52138.28;5063152;28;19932;-71
2022/09/18 11:27:43;;;;;;;;;;;;;;;-144.99;41.00;52278.91;5057147;28;19925;-72
2022/09/18 11:30:16;;;;;;;;;;;;;;;-144.99;41.98;52268.72;5064589;28;19934;-72
2022/09/18 11:32:44;;;;;;;;;;;;;;;-144.99;43.86;52321.72;5046340;28;20337;-72
2022/09/18 11:35:14;;;;;;;;;;;;;;;-144.99;47.01;52366.56;5061899;28;19924;-73
2022/09/18 11:37:43;;;;;;;;;;;;;;;-144.99;49.26;52372.69;5063646;28;19924;-73
2022/09/18 11:40:15;;;;;;;;;;;;;;;-144.99;51.83;52393.06;5064618;28;19932;-72
2022/09/18 11:42:42;;;;;;;;;;;;;;;-144.99;53.94;52395.09;5065556;28;20423;-71
2022/09/18 11:45:17;;;;;;;;;;;;;;;-144.99;55.28;52407.31;5067015;28;19924;-72
2022/09/18 11:47:47;;;;;;;;;;;;;;;-144.99;56.27;52386.94;5059577;28;19935;-71
2022/09/18 11:50:15;;;;;;;;;;;;;;;-144.99;57.77;52407.31;5064000;28;19924;-72
2022/09/18 11:52:43;;;;;;;;;;;;;;;-144.99;58.31;52368.59;5062663;28;20034;-72
2022/09/18 11:55:17;;;;;;;;;;;;;;;-144.99;59.22;52415.47;5074254;28;19928;-72
2022/09/18 11:57:45;;;;;;;;;;;;;;;-144.99;59.31;52374.72;5089079;28;19928;-72
2022/09/18 12:00:14;;;;;;;;;;;;;;;-144.99;59.65;52366.56;5082031;28;19934;-71
2022/09/18 12:02:44;;;;;;;;;;;;;;;-144.99;55.67;52244.28;5055948;28;19931;-71
2022/09/18 12:05:18;;;;;;;;;;;;;;;-144.99;53.48;52181.09;5066684;28;19939;-72
2022/09/18 12:07:51;;;;;;;;;;;;;;;-144.99;48.02;52109.75;5064988;28;19974;-71
2022/09/18 12:10:21;;;;;;;;;;;;;;;-144.99;46.79;52203.50;5047293;28;19925;-72
2022/09/18 12:12:49;;;;;;;;;;;;;;;-144.99;45.73;52236.13;5053289;28;19931;-72
2022/09/18 12:15:18;;;;;;;;;;;;;;;-144.99;46.10;52289.13;5063300;28;19924;-71
2022/09/18 12:17:47;;;;;;;;;;;;;;;-144.99;47.13;52325.81;5061918;28;19924;-72
2022/09/18 12:20:19;;;;;;;;;;;;;;;-144.99;49.85;52340.06;5069468;28;19979;-73
2022/09/18 12:22:49;;;;;;;;;;;;;;;-144.99;52.17;52386.94;5051084;28;20276;-73
2022/09/18 12:25:17;;;;;;;;;;;;;;;-144.99;51.67;52244.28;5057504;28;19936;-71
2022/09/18 12:27:48;;;;;;;;;;;;;;;-144.99;50.43;52195.34;5059851;28;19936;-71
2022/09/18 12:30:16;;;;;;;;;;;;;;;-144.99;47.87;52240.19;5060308;28;19928;-72
2022/09/18 12:32:59;;;;;;;;;;;;;;;-144.99;46.59;52299.31;5053069;28;19924;-71